createdAt,value
2018-02-18T00:01:12.915Z,-0.80
2018-02-18T00:03:40.400Z,-0.80
2018-02-18T00:06:07.961Z,-0.80
2018-02-18T00:08:35.448Z,-0.80
2018-02-18T00:11:02.957Z,-0.80
2018-02-18T00:13:30.452Z,-0.70
2018-02-18T00:15:58.351Z,-0.80
2018-02-18T00:18:25.836Z,-0.70
2018-02-18T00:20:53.346Z,-0.70
2018-02-18T00:23:20.921Z,-0.70
2018-02-18T00:25:48.435Z,-0.70
2018-02-18T00:28:15.929Z,-0.70
2018-02-18T00:30:43.426Z,-0.70
2018-02-18T00:33:10.936Z,-0.70
2018-02-18T00:35:38.834Z,-0.70
2018-02-18T00:38:06.348Z,-0.60
2018-02-18T00:40:33.852Z,-0.70
2018-02-18T00:43:01.820Z,-0.70
2018-02-18T00:45:29.314Z,-0.70
2018-02-18T00:47:56.815Z,-0.80
2018-02-18T00:50:24.309Z,-0.70
2018-02-18T00:52:51.820Z,-0.70
2018-02-18T00:55:19.704Z,-0.70
2018-02-18T00:57:47.209Z,-0.70
2018-02-18T01:00:14.695Z,-0.70
2018-02-18T01:02:42.296Z,-0.70
2018-02-18T01:05:09.793Z,-0.70
2018-02-18T01:07:37.472Z,-0.80
2018-02-18T01:10:04.970Z,-0.80
2018-02-18T01:12:32.486Z,-0.80
2018-02-18T01:14:59.975Z,-0.70
2018-02-18T01:17:27.945Z,-0.80
2018-02-18T01:19:55.836Z,-0.70
2018-02-18T01:22:23.344Z,-0.70
2018-02-18T01:24:50.837Z,-0.80
2018-02-18T01:27:18.354Z,-0.80
2018-02-18T01:29:45.844Z,-0.80
2018-02-18T01:32:13.352Z,-0.80
2018-02-18T01:34:40.839Z,-0.80
2018-02-18T01:37:08.350Z,-0.80
2018-02-18T01:39:35.840Z,-0.80
2018-02-18T01:42:03.350Z,-0.70
2018-02-18T01:44:30.847Z,-0.70
2018-02-18T01:46:58.352Z,-0.70
2018-02-18T01:49:25.847Z,-0.80
2018-02-18T01:51:53.444Z,-0.80
2018-02-18T01:54:21.333Z,-0.80
2018-02-18T01:56:49.236Z,-0.80
2018-02-18T01:59:16.747Z,-0.80
2018-02-18T02:01:44.241Z,-0.80
2018-02-18T02:04:12.158Z,-0.80
2018-02-18T02:06:39.687Z,-0.80
2018-02-18T02:09:07.187Z,-0.80
2018-02-18T02:11:34.682Z,-0.80
2018-02-18T02:14:02.229Z,-0.90
2018-02-18T02:16:29.716Z,-0.90
2018-02-18T02:18:57.225Z,-0.90
2018-02-18T02:21:24.742Z,-1.00
2018-02-18T02:23:52.253Z,-1.00
2018-02-18T02:26:19.757Z,-0.90
2018-02-18T02:28:47.745Z,-1.00
2018-02-18T02:31:15.239Z,-1.00
2018-02-18T02:33:42.759Z,-1.00
2018-02-18T02:36:10.274Z,-0.90
2018-02-18T02:38:37.779Z,-0.90
2018-02-18T02:41:05.286Z,-1.00
2018-02-18T02:43:32.805Z,-0.90
2018-02-18T02:46:00.302Z,-0.90
2018-02-18T02:48:27.818Z,-1.00
2018-02-18T02:50:55.714Z,-1.00
2018-02-18T02:53:23.225Z,-1.00
2018-02-18T02:55:50.722Z,-1.00
2018-02-18T02:58:18.233Z,-1.10
2018-02-18T03:00:45.723Z,-1.10
2018-02-18T03:03:13.236Z,-1.10
2018-02-18T03:05:41.125Z,-1.10
2018-02-18T03:08:09.023Z,-1.20
2018-02-18T03:10:36.573Z,-1.20
2018-02-18T03:13:04.481Z,-1.20
2018-02-18T03:15:31.982Z,-1.20
2018-02-18T03:17:59.489Z,-1.20
2018-02-18T03:20:27.077Z,-1.20
2018-02-18T03:22:54.985Z,-1.20
2018-02-18T03:25:22.482Z,-1.10
2018-02-18T03:27:49.988Z,-1.20
2018-02-18T03:30:17.894Z,-1.20
2018-02-18T03:32:45.469Z,-1.10
2018-02-18T03:35:13.013Z,-1.20
2018-02-18T03:37:40.896Z,-1.30
2018-02-18T03:40:08.795Z,-1.40
2018-02-18T03:42:36.350Z,-1.40
2018-02-18T03:45:04.258Z,-1.40
2018-02-18T03:47:31.757Z,-1.30
2018-02-18T03:49:59.270Z,-1.40
2018-02-18T03:52:27.158Z,-1.30
2018-02-18T03:54:55.060Z,-1.30
2018-02-18T03:57:22.544Z,-1.30
2018-02-18T03:59:50.054Z,-1.40
2018-02-18T04:02:17.549Z,-1.50
2018-02-18T04:04:45.525Z,-1.50
2018-02-18T04:07:13.418Z,-1.40
2018-02-18T04:09:40.934Z,-1.40
2018-02-18T04:12:08.423Z,-1.40
2018-02-18T04:14:35.924Z,-1.40
2018-02-18T04:17:03.818Z,-1.40
2018-02-18T04:19:31.356Z,-1.40
2018-02-18T04:21:58.853Z,-1.40
2018-02-18T04:24:26.365Z,-1.40
2018-02-18T04:26:53.852Z,-1.40
2018-02-18T04:29:21.361Z,-1.40
2018-02-18T04:31:48.856Z,-1.40
2018-02-18T04:34:16.373Z,-1.30
2018-02-18T04:36:43.873Z,-1.40
2018-02-18T04:39:11.416Z,-1.40
2018-02-18T04:41:38.901Z,-1.40
2018-02-18T04:44:06.810Z,-1.40
2018-02-18T04:46:34.299Z,-1.40
2018-02-18T04:49:01.805Z,-1.40
2018-02-18T04:51:29.299Z,-1.30
2018-02-18T04:53:57.200Z,-1.40
2018-02-18T04:56:24.698Z,-1.40
2018-02-18T04:58:52.193Z,-1.40
2018-02-18T05:01:19.705Z,-1.40
2018-02-18T05:03:47.314Z,-1.40
2018-02-18T05:06:14.789Z,-1.40
2018-02-18T05:08:42.275Z,-1.40
2018-02-18T05:11:09.877Z,-1.40
2018-02-18T05:13:37.764Z,-1.30
2018-02-18T05:16:05.282Z,-1.30
2018-02-18T05:18:32.777Z,-1.30
2018-02-18T05:21:00.297Z,-1.30
2018-02-18T05:23:27.784Z,-1.30
2018-02-18T05:25:55.293Z,-1.40
2018-02-18T05:28:22.789Z,-1.40
2018-02-18T05:30:50.694Z,-1.40
2018-02-18T05:33:18.190Z,-1.40
2018-02-18T05:35:45.701Z,-1.40
2018-02-18T05:38:14.089Z,-1.40
2018-02-18T05:40:41.987Z,-1.50
2018-02-18T05:43:09.471Z,-1.50
2018-02-18T05:45:36.976Z,-1.50
2018-02-18T05:48:04.469Z,-1.60
2018-02-18T05:50:31.986Z,-1.60
2018-02-18T05:52:59.472Z,-1.60
2018-02-18T05:55:26.980Z,-1.60
2018-02-18T05:57:54.472Z,-1.50
2018-02-18T06:00:22.378Z,-1.40
2018-02-18T06:02:49.864Z,-1.40
2018-02-18T06:05:17.377Z,-1.40
2018-02-18T06:07:45.270Z,-1.30
2018-02-18T06:10:12.791Z,-1.30
2018-02-18T06:12:40.281Z,-1.30
2018-02-18T06:15:07.784Z,-1.20
2018-02-18T06:17:35.678Z,-1.10
2018-02-18T06:20:03.190Z,-1.10
2018-02-18T06:22:30.685Z,-1.10
2018-02-18T06:24:58.196Z,-1.10
2018-02-18T06:27:25.693Z,-1.00
2018-02-18T06:29:53.188Z,-1.00
2018-02-18T06:32:20.706Z,-1.00
2018-02-18T06:34:48.205Z,-1.00
2018-02-18T06:37:15.707Z,-1.00
2018-02-18T06:39:43.196Z,-0.90
2018-02-18T06:42:11.181Z,-1.00
2018-02-18T06:44:38.745Z,-1.00
2018-02-18T06:47:06.653Z,-1.00
2018-02-18T06:49:34.149Z,-1.00
2018-02-18T06:52:01.658Z,-1.00
2018-02-18T06:54:29.553Z,-0.90
2018-02-18T06:56:57.460Z,-0.90
2018-02-18T06:59:25.001Z,-0.90
2018-02-18T07:01:52.903Z,-1.00
2018-02-18T07:04:20.397Z,-0.90
2018-02-18T07:06:47.910Z,-0.90
2018-02-18T07:09:15.409Z,-0.90
2018-02-18T07:11:42.955Z,-0.90
2018-02-18T07:14:10.537Z,-0.90
2018-02-18T07:16:38.448Z,-0.90
2018-02-18T07:19:05.948Z,-0.90
2018-02-18T07:21:33.547Z,-0.80
2018-02-18T07:24:01.037Z,-0.80
2018-02-18T07:26:29.034Z,-0.70
2018-02-18T07:28:56.548Z,-0.70
2018-02-18T07:31:24.062Z,-0.80
2018-02-18T07:33:51.954Z,-0.80
2018-02-18T07:36:19.455Z,-0.80
2018-02-18T07:38:46.954Z,-0.80
2018-02-18T07:41:14.470Z,-0.80
2018-02-18T07:43:41.964Z,-0.70
2018-02-18T07:46:09.477Z,-0.60
2018-02-18T07:48:36.967Z,-0.60
2018-02-18T07:51:04.879Z,-0.50
2018-02-18T07:53:32.376Z,-0.50
2018-02-18T07:55:59.865Z,-0.40
2018-02-18T07:58:27.372Z,-0.40
2018-02-18T08:00:54.865Z,-0.40
2018-02-18T08:03:22.373Z,-0.30
2018-02-18T08:05:49.882Z,-0.30
2018-02-18T08:08:17.458Z,-0.20
2018-02-18T08:10:45.026Z,-0.20
2018-02-18T08:13:12.528Z,-0.10
2018-02-18T08:15:40.007Z,0.00
2018-02-18T08:18:07.504Z,0.00
2018-02-18T08:20:34.989Z,0.00
2018-02-18T08:23:02.992Z,0.20
2018-02-18T08:25:30.485Z,0.20
2018-02-18T08:27:57.997Z,0.30
2018-02-18T08:30:25.484Z,0.40
2018-02-18T08:32:53.375Z,0.80
2018-02-18T08:35:21.345Z,1.00
2018-02-18T08:37:49.257Z,1.30
2018-02-18T08:40:16.763Z,1.30
2018-02-18T08:42:44.264Z,1.60
2018-02-18T08:45:12.149Z,2.10
2018-02-18T08:47:40.130Z,2.30
2018-02-18T08:50:08.027Z,2.40
2018-02-18T08:52:35.538Z,2.40
2018-02-18T08:55:03.028Z,2.60
2018-02-18T08:57:30.621Z,2.80
2018-02-18T08:59:58.518Z,3.20
2018-02-18T09:02:26.032Z,3.20
2018-02-18T09:04:53.521Z,3.40
2018-02-18T09:07:21.034Z,3.50
2018-02-18T09:09:48.530Z,3.60
2018-02-18T09:12:16.042Z,3.70
2018-02-18T09:14:43.536Z,3.80
2018-02-18T09:17:11.053Z,4.00
2018-02-18T09:19:38.542Z,4.10
2018-02-18T09:22:06.062Z,4.20
2018-02-18T09:24:33.543Z,4.30
2018-02-18T09:27:01.052Z,4.60
2018-02-18T09:29:28.561Z,4.50
2018-02-18T09:31:56.449Z,4.70
2018-02-18T09:34:23.982Z,4.60
2018-02-18T09:36:51.886Z,5.00
2018-02-18T09:39:19.791Z,5.20
2018-02-18T09:41:47.281Z,5.20
2018-02-18T09:44:14.787Z,5.10
2018-02-18T09:46:42.267Z,4.90
2018-02-18T09:49:10.169Z,4.90
2018-02-18T09:51:37.662Z,4.90
2018-02-18T09:54:05.169Z,4.90
2018-02-18T09:56:32.657Z,4.90
2018-02-18T09:59:00.556Z,4.80
2018-02-18T10:01:28.044Z,4.80
2018-02-18T10:03:55.544Z,4.70
2018-02-18T10:06:23.028Z,4.80
2018-02-18T10:08:50.532Z,5.10
2018-02-18T10:11:18.434Z,5.60
2018-02-18T10:13:45.949Z,5.60
2018-02-18T10:16:13.441Z,5.60
2018-02-18T10:18:42.058Z,5.20
2018-02-18T10:21:09.549Z,5.20
2018-02-18T10:23:37.077Z,5.40
2018-02-18T10:26:04.560Z,5.40
2018-02-18T10:28:32.471Z,5.50
2018-02-18T10:30:59.993Z,5.50
2018-02-18T10:33:27.609Z,5.60
2018-02-18T10:35:55.125Z,5.70
2018-02-18T10:38:22.655Z,5.60
2018-02-18T10:40:50.198Z,5.60
2018-02-18T10:43:18.109Z,5.80
2018-02-18T10:45:45.693Z,5.80
2018-02-18T10:48:13.201Z,6.00
2018-02-18T10:50:40.702Z,5.90
2018-02-18T10:53:08.209Z,6.00
2018-02-18T10:55:35.853Z,6.00
2018-02-18T10:58:03.413Z,6.20
2018-02-18T11:00:31.318Z,6.40
2018-02-18T11:02:58.820Z,6.40
2018-02-18T11:05:26.861Z,6.50
2018-02-18T11:07:54.341Z,6.50
2018-02-18T11:10:21.844Z,6.50
2018-02-18T11:12:49.338Z,6.30
2018-02-18T11:15:16.845Z,6.30
2018-02-18T11:17:44.379Z,6.30
2018-02-18T11:20:11.873Z,6.40
2018-02-18T11:22:39.758Z,6.30
2018-02-18T11:25:07.265Z,6.30
2018-02-18T11:27:34.758Z,6.40
2018-02-18T11:30:02.275Z,6.50
2018-02-18T11:32:29.916Z,6.50
2018-02-18T11:34:57.383Z,6.60
2018-02-18T11:37:25.044Z,6.80
2018-02-18T11:39:52.556Z,6.80
2018-02-18T11:42:20.509Z,6.70
2018-02-18T11:44:48.021Z,6.70
2018-02-18T11:47:15.736Z,6.70
2018-02-18T11:49:43.241Z,6.60
2018-02-18T11:52:11.189Z,6.90
2018-02-18T11:54:38.701Z,6.90
2018-02-18T11:57:06.700Z,6.40
2018-02-18T11:59:34.213Z,6.50
2018-02-18T12:02:01.736Z,6.40
2018-02-18T12:04:29.255Z,6.40
2018-02-18T12:06:56.836Z,6.40
2018-02-18T12:09:24.331Z,6.40
2018-02-18T12:11:52.492Z,6.70
2018-02-18T12:14:19.981Z,6.70
2018-02-18T12:16:47.696Z,6.80
2018-02-18T12:19:15.196Z,6.60
2018-02-18T12:21:42.845Z,6.70
2018-02-18T12:24:10.336Z,6.80
2018-02-18T12:26:37.941Z,6.80
2018-02-18T12:29:05.433Z,6.90
2018-02-18T12:31:33.481Z,6.70
2018-02-18T12:34:00.972Z,6.70
2018-02-18T12:36:28.570Z,6.60
2018-02-18T12:38:56.061Z,6.50
2018-02-18T12:41:23.824Z,6.50
2018-02-18T12:43:51.333Z,6.50
2018-02-18T12:46:19.071Z,6.60
2018-02-18T12:48:46.585Z,6.60
2018-02-18T12:51:14.258Z,6.50
2018-02-18T12:53:41.752Z,6.60
2018-02-18T12:56:09.290Z,6.80
2018-02-18T12:58:36.786Z,6.60
2018-02-18T13:01:04.402Z,6.60
2018-02-18T13:03:31.954Z,6.50
2018-02-18T13:05:59.937Z,6.30
2018-02-18T13:08:27.825Z,6.30
2018-02-18T13:10:55.925Z,6.30
2018-02-18T13:13:23.414Z,6.30
2018-02-18T13:15:51.048Z,6.40
2018-02-18T13:18:19.025Z,6.40
2018-02-18T13:20:46.999Z,6.50
2018-02-18T13:23:14.495Z,6.50
2018-02-18T13:25:42.033Z,6.50
2018-02-18T13:28:09.626Z,6.40
2018-02-18T13:30:37.528Z,6.40
2018-02-18T13:33:05.007Z,6.40
2018-02-18T13:35:32.613Z,6.50
2018-02-18T13:38:00.083Z,6.50
2018-02-18T13:40:27.592Z,6.60
2018-02-18T13:42:55.477Z,6.40
2018-02-18T13:45:23.361Z,6.50
2018-02-18T13:47:50.870Z,6.50
2018-02-18T13:50:18.353Z,6.60
2018-02-18T13:52:45.866Z,6.70
2018-02-18T13:55:13.835Z,6.80
2018-02-18T13:59:49.243Z,6.80
2018-02-18T14:02:16.749Z,6.90
2018-02-18T14:04:44.250Z,6.90
2018-02-18T14:07:11.765Z,6.90
2018-02-18T14:09:39.261Z,6.80
2018-02-18T14:12:06.774Z,6.70
2018-02-18T14:14:34.651Z,6.70
2018-02-18T14:17:02.561Z,6.70
2018-02-18T14:19:30.128Z,6.70
2018-02-18T14:21:57.642Z,6.70
2018-02-18T14:24:25.131Z,6.80
2018-02-18T14:26:52.641Z,6.90
2018-02-18T14:29:20.155Z,6.70
2018-02-18T14:31:47.669Z,6.80
2018-02-18T14:34:15.641Z,6.70
2018-02-18T14:36:43.210Z,6.70
2018-02-18T14:39:10.656Z,6.80
2018-02-18T14:41:50.101Z,6.70
2018-02-18T14:44:29.381Z,6.80
2018-02-18T14:47:09.376Z,6.70
2018-02-18T14:49:48.604Z,6.70
2018-02-18T14:52:28.478Z,6.70
2018-02-18T14:55:21.658Z,6.80
2018-02-18T14:57:49.170Z,6.70
2018-02-18T15:00:16.661Z,6.60
2018-02-18T15:02:44.166Z,6.40
2018-02-18T15:05:11.657Z,6.30
2018-02-18T15:07:39.177Z,6.30
2018-02-18T15:10:06.674Z,6.20
2018-02-18T15:12:34.165Z,6.30
2018-02-18T15:15:01.676Z,6.20
2018-02-18T15:17:29.161Z,6.30
2018-02-18T15:19:57.067Z,6.40
2018-02-18T15:22:24.566Z,6.40
2018-02-18T15:24:52.096Z,6.50
2018-02-18T15:27:19.980Z,6.40
2018-02-18T15:29:47.876Z,6.40
2018-02-18T15:32:15.365Z,6.40
2018-02-18T15:34:42.872Z,6.40
2018-02-18T15:37:10.359Z,6.40
2018-02-18T15:39:38.267Z,6.50
2018-02-18T15:42:05.765Z,6.50
2018-02-18T15:44:33.280Z,6.50
2018-02-18T15:47:01.173Z,6.30
2018-02-18T15:49:29.072Z,6.20
2018-02-18T15:51:56.565Z,6.20
2018-02-18T15:54:24.059Z,6.10
2018-02-18T15:56:51.545Z,6.20
2018-02-18T15:59:19.049Z,6.20
2018-02-18T16:01:47.463Z,6.20
2018-02-18T16:04:15.009Z,6.20
2018-02-18T16:06:42.488Z,6.30
2018-02-18T16:09:10.029Z,6.30
2018-02-18T16:11:37.917Z,6.30
2018-02-18T16:14:05.818Z,6.20
2018-02-18T16:16:33.311Z,6.20
2018-02-18T16:19:00.822Z,6.20
2018-02-18T16:21:28.318Z,6.50
2018-02-18T16:23:55.821Z,6.40
2018-02-18T16:26:23.317Z,6.40
2018-02-18T16:28:50.821Z,6.20
2018-02-18T16:31:18.710Z,6.00
2018-02-18T16:33:46.264Z,6.00
2018-02-18T16:36:14.176Z,5.90
2018-02-18T16:38:41.667Z,5.90
2018-02-18T16:41:09.181Z,6.00
2018-02-18T16:43:36.757Z,5.80
2018-02-18T16:46:04.768Z,5.70
2018-02-18T16:48:32.252Z,5.80
2018-02-18T16:50:59.811Z,5.80
2018-02-18T16:53:27.659Z,5.60
2018-02-18T16:55:55.165Z,5.60
2018-02-18T16:58:22.661Z,5.50
2018-02-18T17:00:50.163Z,5.50
2018-02-18T17:03:17.662Z,5.40
2018-02-18T17:05:45.172Z,5.40
2018-02-18T17:08:12.652Z,5.20
2018-02-18T17:10:40.161Z,5.20
2018-02-18T17:13:08.045Z,5.10
2018-02-18T17:15:35.557Z,5.10
2018-02-18T17:18:03.040Z,5.00
2018-02-18T17:20:30.540Z,5.00
2018-02-18T17:22:58.029Z,5.00
2018-02-18T17:25:25.929Z,4.50
2018-02-18T17:27:53.408Z,4.50
2018-02-18T17:30:20.912Z,4.40
2018-02-18T17:32:48.402Z,4.40
2018-02-18T17:35:15.914Z,4.30
2018-02-18T17:37:43.413Z,4.30
2018-02-18T17:40:10.918Z,4.30
2018-02-18T17:42:38.405Z,4.30
2018-02-18T17:45:06.313Z,4.20
2018-02-18T17:47:33.853Z,4.30
2018-02-18T17:50:01.766Z,4.30
2018-02-18T17:52:29.252Z,4.30
2018-02-18T17:54:56.760Z,4.10
2018-02-18T17:57:24.282Z,4.10
2018-02-18T17:59:51.785Z,4.00
2018-02-18T18:02:19.320Z,3.90
2018-02-18T18:04:46.858Z,3.90
2018-02-18T18:07:14.764Z,3.90
2018-02-18T18:09:42.309Z,3.90
2018-02-18T18:12:10.217Z,3.80
2018-02-18T18:14:37.711Z,3.80
2018-02-18T18:17:05.242Z,3.90
2018-02-18T18:19:32.734Z,3.80
2018-02-18T18:22:00.410Z,3.80
2018-02-18T18:24:28.262Z,3.80
2018-02-18T18:26:56.161Z,3.70
2018-02-18T18:29:23.702Z,3.80
2018-02-18T18:31:51.632Z,3.60
2018-02-18T18:34:19.126Z,3.60
2018-02-18T18:36:46.648Z,3.60
2018-02-18T18:39:14.138Z,3.50
2018-02-18T18:41:41.637Z,3.50
2018-02-18T18:44:09.129Z,3.50
2018-02-18T18:46:36.734Z,3.50
2018-02-18T18:49:04.606Z,3.40
2018-02-18T18:51:32.245Z,3.50
2018-02-18T18:53:59.727Z,3.40
2018-02-18T18:56:27.272Z,3.50
2018-02-18T18:58:54.765Z,3.40
2018-02-18T19:01:22.381Z,3.40
2018-02-18T19:03:49.870Z,3.30
2018-02-18T19:06:17.517Z,3.30
2018-02-18T19:08:45.040Z,3.20
2018-02-18T19:11:12.554Z,3.20
2018-02-18T19:13:40.065Z,3.20
2018-02-18T19:16:07.563Z,3.20
2018-02-18T19:18:35.054Z,3.30
2018-02-18T19:21:02.961Z,3.20
2018-02-18T19:23:30.445Z,3.20
2018-02-18T19:25:57.959Z,3.20
2018-02-18T19:28:25.546Z,3.20
2018-02-18T19:30:53.041Z,3.10
2018-02-18T19:33:20.550Z,3.10
2018-02-18T19:35:48.057Z,3.10
2018-02-18T19:38:15.955Z,3.00
2018-02-18T19:40:43.462Z,3.00
2018-02-18T19:43:10.969Z,3.00
2018-02-18T19:45:38.896Z,2.90
2018-02-18T19:48:06.406Z,2.90
2018-02-18T19:50:34.021Z,2.90
2018-02-18T19:53:01.531Z,2.80
2018-02-18T19:55:29.031Z,2.80
2018-02-18T19:57:56.546Z,2.80
2018-02-18T20:00:24.036Z,2.80
2018-02-18T20:02:51.536Z,2.80
2018-02-18T20:05:19.025Z,2.80
2018-02-18T20:07:46.926Z,2.70
2018-02-18T20:10:14.417Z,2.70
2018-02-18T20:12:41.921Z,2.70
2018-02-18T20:15:09.412Z,2.70
2018-02-18T20:17:37.308Z,2.70
2018-02-18T20:20:05.198Z,2.80
2018-02-18T20:22:32.705Z,2.80
2018-02-18T20:25:00.206Z,2.80
2018-02-18T20:27:27.785Z,2.70
2018-02-18T20:29:55.230Z,2.70
2018-02-18T20:32:22.750Z,2.70
2018-02-18T20:34:50.237Z,2.60
2018-02-18T20:37:17.741Z,2.60
2018-02-18T20:39:45.224Z,2.50
2018-02-18T20:42:12.749Z,2.60
2018-02-18T20:44:40.241Z,2.50
2018-02-18T20:47:07.763Z,2.40
2018-02-18T20:49:35.645Z,3.80
2018-02-18T20:52:03.609Z,3.60
2018-02-18T20:54:31.097Z,3.60
2018-02-18T20:56:59.011Z,3.00
2018-02-18T20:59:26.497Z,3.00
2018-02-18T21:01:53.985Z,2.70
2018-02-18T21:04:21.508Z,2.50
2018-02-18T21:06:49.004Z,2.50
2018-02-18T21:09:16.508Z,2.40
2018-02-18T21:11:44.001Z,2.40
2018-02-18T21:14:11.512Z,2.30
2018-02-18T21:16:39.001Z,2.20
2018-02-18T21:19:06.518Z,2.20
2018-02-18T21:21:34.008Z,2.10
2018-02-18T21:24:01.511Z,2.00
2018-02-18T21:26:28.995Z,2.00
2018-02-18T21:28:56.496Z,2.00
2018-02-18T21:31:24.382Z,2.00
2018-02-18T21:33:51.894Z,2.00
2018-02-18T21:36:19.389Z,2.10
2018-02-18T21:38:46.901Z,2.00
2018-02-18T21:41:14.385Z,1.80
2018-02-18T21:43:41.898Z,1.80
2018-02-18T21:46:09.385Z,1.70
2018-02-18T21:48:37.390Z,1.60
2018-02-18T21:51:04.881Z,1.60
2018-02-18T21:53:32.383Z,1.60
2018-02-18T21:55:59.877Z,1.60
2018-02-18T21:58:27.789Z,1.50
2018-02-18T22:00:55.294Z,1.50
2018-02-18T22:03:22.804Z,1.40
2018-02-18T22:05:50.690Z,1.30
2018-02-18T22:08:18.589Z,1.30
2018-02-18T22:10:46.073Z,1.30
2018-02-18T22:13:13.586Z,1.20
2018-02-18T22:15:41.073Z,1.20
2018-02-18T22:18:08.963Z,1.20
2018-02-18T22:20:36.843Z,1.30
2018-02-18T22:23:04.749Z,1.30
2018-02-18T22:25:32.253Z,1.30
2018-02-18T22:27:59.749Z,1.30
2018-02-18T22:30:27.661Z,1.20
2018-02-18T22:32:55.157Z,1.30
2018-02-18T22:35:22.664Z,1.20
2018-02-18T22:37:50.157Z,1.20
2018-02-18T22:40:18.056Z,1.20
2018-02-18T22:42:45.554Z,1.20
2018-02-18T22:45:13.055Z,1.30
2018-02-18T22:47:40.545Z,1.30
2018-02-18T22:50:08.451Z,1.20
2018-02-18T22:52:35.948Z,1.30
2018-02-18T22:55:03.453Z,1.20
2018-02-18T22:57:30.935Z,1.20
2018-02-18T22:59:58.837Z,1.30
2018-02-18T23:02:26.321Z,1.30
2018-02-18T23:04:54.301Z,1.20
2018-02-18T23:07:21.793Z,1.20
2018-02-18T23:09:49.316Z,1.20
2018-02-18T23:12:17.200Z,1.20
2018-02-18T23:14:44.699Z,1.20
2018-02-18T23:17:12.185Z,1.10
2018-02-18T23:19:39.704Z,1.10
2018-02-18T23:22:07.589Z,1.00
2018-02-18T23:24:35.098Z,1.10
2018-02-18T23:27:02.585Z,0.90
2018-02-18T23:29:30.093Z,0.90
2018-02-18T23:31:57.977Z,1.00
2018-02-18T23:34:25.882Z,1.00
2018-02-18T23:36:53.377Z,1.00
2018-02-18T23:39:20.893Z,1.00
2018-02-18T23:41:48.775Z,0.90
2018-02-18T23:44:16.673Z,0.90
2018-02-18T23:46:44.160Z,0.90
2018-02-18T23:49:11.682Z,0.90
2018-02-18T23:51:39.260Z,0.80
2018-02-18T23:54:07.240Z,0.80
2018-02-18T23:56:35.146Z,0.80
2018-02-18T23:59:02.651Z,0.80
